sensor_id;sensor_type;location;lat;lon;timestamp;temperature;humidity
31765;DHT22;18338;53.240;8.798;2023-06-24T00:01:34;15.20;99.90
31765;DHT22;18338;53.240;8.798;2023-06-24T00:04:01;15.10;99.90
31765;DHT22;18338;53.240;8.798;2023-06-24T00:06:28;15.00;99.90
31765;DHT22;18338;53.240;8.798;2023-06-24T00:08:55;15.10;99.90
31765;DHT22;18338;53.240;8.798;2023-06-24T00:11:28;15.00;99.90
31765;DHT22;18338;53.240;8.798;2023-06-24T00:13:56;14.90;99.90
31765;DHT22;18338;53.240;8.798;2023-06-24T00:16:23;14.90;99.90
31765;DHT22;18338;53.240;8.798;2023-06-24T00:18:56;14.90;99.90
31765;DHT22;18338;53.240;8.798;2023-06-24T00:21:28;14.90;99.90
31765;DHT22;18338;53.240;8.798;2023-06-24T00:23:59;14.90;99.90
31765;DHT22;18338;53.240;8.798;2023-06-24T00:26:31;14.90;99.90
31765;DHT22;18338;53.240;8.798;2023-06-24T00:28:58;14.80;99.90
31765;DHT22;18338;53.240;8.798;2023-06-24T00:31:25;14.80;99.90
31765;DHT22;18338;53.240;8.798;2023-06-24T00:33:52;14.70;99.90
31765;DHT22;18338;53.240;8.798;2023-06-24T00:36:20;14.70;99.90
31765;DHT22;18338;53.240;8.798;2023-06-24T00:38:49;14.60;99.90
31765;DHT22;18338;53.240;8.798;2023-06-24T00:41:19;14.60;99.90
31765;DHT22;18338;53.240;8.798;2023-06-24T00:43:47;14.50;99.90
31765;DHT22;18338;53.240;8.798;2023-06-24T00:46:15;14.50;99.90
31765;DHT22;18338;53.240;8.798;2023-06-24T00:48:42;14.50;99.90
31765;DHT22;18338;53.240;8.798;2023-06-24T00:51:09;14.60;99.90
31765;DHT22;18338;53.240;8.798;2023-06-24T00:53:36;14.60;99.90
31765;DHT22;18338;53.240;8.798;2023-06-24T00:56:04;14.50;99.90
31765;DHT22;18338;53.240;8.798;2023-06-24T00:58:32;14.50;99.90
31765;DHT22;18338;53.240;8.798;2023-06-24T01:01:01;14.50;99.90
31765;DHT22;18338;53.240;8.798;2023-06-24T01:03:29;14.50;99.90
31765;DHT22;18338;53.240;8.798;2023-06-24T01:05:56;14.60;99.90
31765;DHT22;18338;53.240;8.798;2023-06-24T01:08:23;14.60;99.90
31765;DHT22;18338;53.240;8.798;2023-06-24T01:10:51;14.60;99.90
31765;DHT22;18338;53.240;8.798;2023-06-24T01:13:18;14.50;99.90
31765;DHT22;18338;53.240;8.798;2023-06-24T01:15:45;14.50;99.90
31765;DHT22;18338;53.240;8.798;2023-06-24T01:18:32;14.50;99.90
31765;DHT22;18338;53.240;8.798;2023-06-24T01:21:18;14.50;99.90
31765;DHT22;18338;53.240;8.798;2023-06-24T01:24:07;14.50;99.90
31765;DHT22;18338;53.240;8.798;2023-06-24T01:27:06;14.50;99.90
31765;DHT22;18338;53.240;8.798;2023-06-24T01:32:29;14.40;99.90
31765;DHT22;18338;53.240;8.798;2023-06-24T01:35:04;14.40;99.90
31765;DHT22;18338;53.240;8.798;2023-06-24T01:37:45;14.40;99.90
31765;DHT22;18338;53.240;8.798;2023-06-24T01:40:22;14.40;99.90
31765;DHT22;18338;53.240;8.798;2023-06-24T01:42:52;14.30;99.90
31765;DHT22;18338;53.240;8.798;2023-06-24T01:45:23;14.30;99.90
31765;DHT22;18338;53.240;8.798;2023-06-24T01:51:06;14.30;99.90
31765;DHT22;18338;53.240;8.798;2023-06-24T01:53:37;14.30;99.90
31765;DHT22;18338;53.240;8.798;2023-06-24T01:56:11;14.30;99.90
31765;DHT22;18338;53.240;8.798;2023-06-24T01:58:39;14.20;99.90
31765;DHT22;18338;53.240;8.798;2023-06-24T02:01:07;14.30;99.90
31765;DHT22;18338;53.240;8.798;2023-06-24T02:03:34;14.30;99.90
31765;DHT22;18338;53.240;8.798;2023-06-24T02:06:02;14.30;99.90
31765;DHT22;18338;53.240;8.798;2023-06-24T02:08:32;14.20;99.90
31765;DHT22;18338;53.240;8.798;2023-06-24T02:11:01;14.20;99.90
31765;DHT22;18338;53.240;8.798;2023-06-24T02:13:30;14.10;99.90
31765;DHT22;18338;53.240;8.798;2023-06-24T02:16:00;14.10;99.90
31765;DHT22;18338;53.240;8.798;2023-06-24T02:18:29;14.10;99.90
31765;DHT22;18338;53.240;8.798;2023-06-24T02:20:57;14.10;99.90
31765;DHT22;18338;53.240;8.798;2023-06-24T02:23:26;14.10;99.90
31765;DHT22;18338;53.240;8.798;2023-06-24T02:25:53;14.00;99.90
31765;DHT22;18338;53.240;8.798;2023-06-24T02:28:21;14.00;99.90
31765;DHT22;18338;53.240;8.798;2023-06-24T02:30:48;14.10;99.90
31765;DHT22;18338;53.240;8.798;2023-06-24T02:33:15;14.00;99.90
31765;DHT22;18338;53.240;8.798;2023-06-24T02:35:43;14.00;99.90
31765;DHT22;18338;53.240;8.798;2023-06-24T02:38:12;14.10;99.90
31765;DHT22;18338;53.240;8.798;2023-06-24T02:40:39;14.10;99.90
31765;DHT22;18338;53.240;8.798;2023-06-24T02:43:06;14.00;99.90
31765;DHT22;18338;53.240;8.798;2023-06-24T02:45:32;13.90;99.90
31765;DHT22;18338;53.240;8.798;2023-06-24T02:48:00;13.80;99.90
31765;DHT22;18338;53.240;8.798;2023-06-24T02:50:27;13.90;99.90
31765;DHT22;18338;53.240;8.798;2023-06-24T02:52:55;13.90;99.90
31765;DHT22;18338;53.240;8.798;2023-06-24T02:55:22;13.80;99.90
31765;DHT22;18338;53.240;8.798;2023-06-24T02:57:49;13.80;99.90
31765;DHT22;18338;53.240;8.798;2023-06-24T03:00:30;13.80;99.90
31765;DHT22;18338;53.240;8.798;2023-06-24T03:03:02;13.80;99.90
31765;DHT22;18338;53.240;8.798;2023-06-24T03:05:30;13.80;99.90
31765;DHT22;18338;53.240;8.798;2023-06-24T03:08:00;13.90;99.90
31765;DHT22;18338;53.240;8.798;2023-06-24T03:10:27;13.90;99.90
31765;DHT22;18338;53.240;8.798;2023-06-24T03:12:54;13.80;99.90
31765;DHT22;18338;53.240;8.798;2023-06-24T03:15:21;13.90;99.90
31765;DHT22;18338;53.240;8.798;2023-06-24T03:17:50;13.90;99.90
31765;DHT22;18338;53.240;8.798;2023-06-24T03:20:17;13.90;99.90
31765;DHT22;18338;53.240;8.798;2023-06-24T03:22:44;13.90;99.90
31765;DHT22;18338;53.240;8.798;2023-06-24T03:25:11;14.00;99.90
31765;DHT22;18338;53.240;8.798;2023-06-24T03:27:37;14.00;99.90
31765;DHT22;18338;53.240;8.798;2023-06-24T03:30:05;14.10;99.90
31765;DHT22;18338;53.240;8.798;2023-06-24T03:32:32;14.10;99.90
31765;DHT22;18338;53.240;8.798;2023-06-24T03:35:03;14.20;99.90
31765;DHT22;18338;53.240;8.798;2023-06-24T03:37:30;14.30;99.90
31765;DHT22;18338;53.240;8.798;2023-06-24T03:39:57;14.40;99.90
31765;DHT22;18338;53.240;8.798;2023-06-24T03:42:26;14.40;99.90
31765;DHT22;18338;53.240;8.798;2023-06-24T03:44:55;14.40;99.90
31765;DHT22;18338;53.240;8.798;2023-06-24T03:47:21;14.40;99.90
31765;DHT22;18338;53.240;8.798;2023-06-24T03:49:48;14.50;99.90
31765;DHT22;18338;53.240;8.798;2023-06-24T03:52:16;14.50;99.90
31765;DHT22;18338;53.240;8.798;2023-06-24T03:54:43;14.60;99.90
31765;DHT22;18338;53.240;8.798;2023-06-24T03:57:10;14.60;99.90
31765;DHT22;18338;53.240;8.798;2023-06-24T03:59:36;14.60;99.90
31765;DHT22;18338;53.240;8.798;2023-06-24T04:02:04;14.60;99.90
31765;DHT22;18338;53.240;8.798;2023-06-24T04:04:35;14.60;99.90
31765;DHT22;18338;53.240;8.798;2023-06-24T04:07:02;14.70;99.90
31765;DHT22;18338;53.240;8.798;2023-06-24T04:09:33;14.70;99.90
31765;DHT22;18338;53.240;8.798;2023-06-24T04:12:00;14.70;99.90
31765;DHT22;18338;53.240;8.798;2023-06-24T04:14:28;14.70;99.90
31765;DHT22;18338;53.240;8.798;2023-06-24T04:16:58;14.70;99.90
31765;DHT22;18338;53.240;8.798;2023-06-24T04:19:24;14.70;99.90
31765;DHT22;18338;53.240;8.798;2023-06-24T04:21:51;14.80;99.90
31765;DHT22;18338;53.240;8.798;2023-06-24T04:24:18;14.80;99.90
31765;DHT22;18338;53.240;8.798;2023-06-24T04:26:44;14.90;99.90
31765;DHT22;18338;53.240;8.798;2023-06-24T04:29:11;14.90;99.90
31765;DHT22;18338;53.240;8.798;2023-06-24T04:31:38;15.00;99.90
31765;DHT22;18338;53.240;8.798;2023-06-24T04:34:05;15.00;99.90
31765;DHT22;18338;53.240;8.798;2023-06-24T04:36:32;15.10;99.90
31765;DHT22;18338;53.240;8.798;2023-06-24T04:38:58;15.20;99.90
31765;DHT22;18338;53.240;8.798;2023-06-24T04:41:25;15.20;99.90
31765;DHT22;18338;53.240;8.798;2023-06-24T04:43:52;15.30;99.90
31765;DHT22;18338;53.240;8.798;2023-06-24T04:46:19;15.30;99.90
31765;DHT22;18338;53.240;8.798;2023-06-24T04:48:45;15.40;99.90
31765;DHT22;18338;53.240;8.798;2023-06-24T04:51:12;15.40;99.90
31765;DHT22;18338;53.240;8.798;2023-06-24T04:53:39;15.50;99.90
31765;DHT22;18338;53.240;8.798;2023-06-24T04:56:06;15.60;99.90
31765;DHT22;18338;53.240;8.798;2023-06-24T04:58:33;15.70;99.90
31765;DHT22;18338;53.240;8.798;2023-06-24T05:00:59;15.70;99.90
31765;DHT22;18338;53.240;8.798;2023-06-24T05:03:26;15.80;99.90
31765;DHT22;18338;53.240;8.798;2023-06-24T05:05:53;15.80;99.90
31765;DHT22;18338;53.240;8.798;2023-06-24T05:08:20;15.90;99.90
31765;DHT22;18338;53.240;8.798;2023-06-24T05:10:47;16.00;99.90
31765;DHT22;18338;53.240;8.798;2023-06-24T05:13:13;16.00;99.90
31765;DHT22;18338;53.240;8.798;2023-06-24T05:15:42;16.10;99.90
31765;DHT22;18338;53.240;8.798;2023-06-24T05:18:12;16.20;99.90
31765;DHT22;18338;53.240;8.798;2023-06-24T05:20:39;16.30;99.90
31765;DHT22;18338;53.240;8.798;2023-06-24T05:23:05;16.30;99.90
31765;DHT22;18338;53.240;8.798;2023-06-24T05:25:32;16.40;99.90
31765;DHT22;18338;53.240;8.798;2023-06-24T05:28:00;16.50;99.90
31765;DHT22;18338;53.240;8.798;2023-06-24T05:30:26;16.60;99.90
31765;DHT22;18338;53.240;8.798;2023-06-24T05:32:53;16.70;99.90
31765;DHT22;18338;53.240;8.798;2023-06-24T05:35:23;16.80;99.90
31765;DHT22;18338;53.240;8.798;2023-06-24T05:37:50;16.80;99.90
31765;DHT22;18338;53.240;8.798;2023-06-24T05:40:17;16.90;99.90
31765;DHT22;18338;53.240;8.798;2023-06-24T05:42:44;17.00;99.90
31765;DHT22;18338;53.240;8.798;2023-06-24T05:45:10;17.10;99.90
31765;DHT22;18338;53.240;8.798;2023-06-24T05:47:37;17.10;99.90
31765;DHT22;18338;53.240;8.798;2023-06-24T05:50:05;17.30;99.90
31765;DHT22;18338;53.240;8.798;2023-06-24T05:52:32;17.20;99.90
31765;DHT22;18338;53.240;8.798;2023-06-24T05:54:59;17.30;99.90
31765;DHT22;18338;53.240;8.798;2023-06-24T05:57:26;17.40;99.90
31765;DHT22;18338;53.240;8.798;2023-06-24T05:59:52;17.50;99.90
31765;DHT22;18338;53.240;8.798;2023-06-24T06:02:19;17.70;99.90
31765;DHT22;18338;53.240;8.798;2023-06-24T06:04:47;17.90;99.90
31765;DHT22;18338;53.240;8.798;2023-06-24T06:07:13;17.90;99.90
31765;DHT22;18338;53.240;8.798;2023-06-24T06:09:40;17.90;99.90
31765;DHT22;18338;53.240;8.798;2023-06-24T06:12:07;18.00;99.90
31765;DHT22;18338;53.240;8.798;2023-06-24T06:14:34;18.10;99.90
31765;DHT22;18338;53.240;8.798;2023-06-24T06:17:01;18.10;99.90
31765;DHT22;18338;53.240;8.798;2023-06-24T06:19:28;18.20;99.90
31765;DHT22;18338;53.240;8.798;2023-06-24T06:21:54;18.20;99.90
31765;DHT22;18338;53.240;8.798;2023-06-24T06:24:21;18.20;99.90
31765;DHT22;18338;53.240;8.798;2023-06-24T06:26:48;18.20;99.90
31765;DHT22;18338;53.240;8.798;2023-06-24T06:29:15;18.30;99.90
31765;DHT22;18338;53.240;8.798;2023-06-24T06:31:41;18.50;99.90
31765;DHT22;18338;53.240;8.798;2023-06-24T06:34:08;18.50;99.90
31765;DHT22;18338;53.240;8.798;2023-06-24T06:36:35;18.70;99.90
31765;DHT22;18338;53.240;8.798;2023-06-24T06:39:02;18.80;99.90
31765;DHT22;18338;53.240;8.798;2023-06-24T06:41:28;18.70;99.90
31765;DHT22;18338;53.240;8.798;2023-06-24T06:43:55;18.70;99.90
31765;DHT22;18338;53.240;8.798;2023-06-24T06:46:22;18.70;99.90
31765;DHT22;18338;53.240;8.798;2023-06-24T06:48:49;18.80;99.90
31765;DHT22;18338;53.240;8.798;2023-06-24T06:51:16;18.90;99.90
31765;DHT22;18338;53.240;8.798;2023-06-24T06:53:45;19.00;99.90
31765;DHT22;18338;53.240;8.798;2023-06-24T06:56:22;19.20;99.90
31765;DHT22;18338;53.240;8.798;2023-06-24T06:58:49;19.30;99.90
31765;DHT22;18338;53.240;8.798;2023-06-24T07:01:17;19.50;99.90
31765;DHT22;18338;53.240;8.798;2023-06-24T07:03:44;19.70;99.90
31765;DHT22;18338;53.240;8.798;2023-06-24T07:06:11;19.70;99.90
31765;DHT22;18338;53.240;8.798;2023-06-24T07:08:38;19.80;99.90
31765;DHT22;18338;53.240;8.798;2023-06-24T07:11:04;19.80;99.90
31765;DHT22;18338;53.240;8.798;2023-06-24T07:13:31;19.70;99.90
31765;DHT22;18338;53.240;8.798;2023-06-24T07:15:58;19.80;99.90
31765;DHT22;18338;53.240;8.798;2023-06-24T07:18:25;19.90;99.90
31765;DHT22;18338;53.240;8.798;2023-06-24T07:20:59;20.00;99.90
31765;DHT22;18338;53.240;8.798;2023-06-24T07:23:26;20.10;99.90
31765;DHT22;18338;53.240;8.798;2023-06-24T07:25:53;20.30;99.90
31765;DHT22;18338;53.240;8.798;2023-06-24T07:28:19;20.40;99.90
31765;DHT22;18338;53.240;8.798;2023-06-24T07:30:46;20.50;99.90
31765;DHT22;18338;53.240;8.798;2023-06-24T07:33:13;20.70;99.90
31765;DHT22;18338;53.240;8.798;2023-06-24T07:35:40;20.70;99.90
31765;DHT22;18338;53.240;8.798;2023-06-24T07:38:08;20.80;99.90
31765;DHT22;18338;53.240;8.798;2023-06-24T07:40:35;20.70;99.90
31765;DHT22;18338;53.240;8.798;2023-06-24T07:43:01;20.90;99.90
31765;DHT22;18338;53.240;8.798;2023-06-24T07:45:28;21.00;99.90
31765;DHT22;18338;53.240;8.798;2023-06-24T07:47:55;21.10;99.90
31765;DHT22;18338;53.240;8.798;2023-06-24T07:50:22;21.20;99.90
31765;DHT22;18338;53.240;8.798;2023-06-24T07:52:51;21.30;99.90
31765;DHT22;18338;53.240;8.798;2023-06-24T07:55:18;21.50;99.90
31765;DHT22;18338;53.240;8.798;2023-06-24T07:57:45;21.50;99.90
31765;DHT22;18338;53.240;8.798;2023-06-24T08:00:15;21.60;99.90
31765;DHT22;18338;53.240;8.798;2023-06-24T08:02:42;21.70;99.90
31765;DHT22;18338;53.240;8.798;2023-06-24T08:05:09;22.00;99.90
31765;DHT22;18338;53.240;8.798;2023-06-24T08:07:37;22.60;99.90
31765;DHT22;18338;53.240;8.798;2023-06-24T08:10:04;23.30;99.90
31765;DHT22;18338;53.240;8.798;2023-06-24T08:12:32;24.10;99.90
31765;DHT22;18338;53.240;8.798;2023-06-24T08:14:58;24.90;99.90
31765;DHT22;18338;53.240;8.798;2023-06-24T08:17:25;26.30;99.90
31765;DHT22;18338;53.240;8.798;2023-06-24T08:19:52;28.50;99.90
31765;DHT22;18338;53.240;8.798;2023-06-24T08:22:19;30.50;99.90
31765;DHT22;18338;53.240;8.798;2023-06-24T08:24:45;32.30;97.40
31765;DHT22;18338;53.240;8.798;2023-06-24T08:27:12;33.00;94.00
31765;DHT22;18338;53.240;8.798;2023-06-24T08:29:40;32.60;93.10
31765;DHT22;18338;53.240;8.798;2023-06-24T08:32:07;32.30;91.70
31765;DHT22;18338;53.240;8.798;2023-06-24T08:34:34;31.50;93.20
31765;DHT22;18338;53.240;8.798;2023-06-24T08:37:01;31.40;92.60
31765;DHT22;18338;53.240;8.798;2023-06-24T08:39:27;30.40;93.20
31765;DHT22;18338;53.240;8.798;2023-06-24T08:41:54;30.40;92.10
31765;DHT22;18338;53.240;8.798;2023-06-24T08:44:21;30.30;91.80
31765;DHT22;18338;53.240;8.798;2023-06-24T08:46:48;30.60;91.70
31765;DHT22;18338;53.240;8.798;2023-06-24T08:49:29;31.90;91.10
31765;DHT22;18338;53.240;8.798;2023-06-24T08:54:35;32.90;85.50
31765;DHT22;18338;53.240;8.798;2023-06-24T08:57:05;30.90;85.10
31765;DHT22;18338;53.240;8.798;2023-06-24T08:59:36;30.60;90.20
31765;DHT22;18338;53.240;8.798;2023-06-24T09:02:03;30.90;88.50
31765;DHT22;18338;53.240;8.798;2023-06-24T09:04:31;31.20;88.50
31765;DHT22;18338;53.240;8.798;2023-06-24T09:06:59;31.50;85.90
31765;DHT22;18338;53.240;8.798;2023-06-24T09:09:26;31.20;88.00
31765;DHT22;18338;53.240;8.798;2023-06-24T09:11:57;32.10;84.70
31765;DHT22;18338;53.240;8.798;2023-06-24T09:14:25;32.50;82.90
31765;DHT22;18338;53.240;8.798;2023-06-24T09:17:00;31.50;82.70
31765;DHT22;18338;53.240;8.798;2023-06-24T09:19:29;31.80;83.40
31765;DHT22;18338;53.240;8.798;2023-06-24T09:24:30;30.70;85.10
31765;DHT22;18338;53.240;8.798;2023-06-24T09:26:57;31.60;85.80
31765;DHT22;18338;53.240;8.798;2023-06-24T09:29:29;33.40;84.00
31765;DHT22;18338;53.240;8.798;2023-06-24T09:31:58;33.20;78.90
31765;DHT22;18338;53.240;8.798;2023-06-24T09:34:28;34.50;76.90
31765;DHT22;18338;53.240;8.798;2023-06-24T09:36:57;34.20;75.80
31765;DHT22;18338;53.240;8.798;2023-06-24T09:39:25;34.80;75.20
31765;DHT22;18338;53.240;8.798;2023-06-24T09:41:58;34.70;75.60
31765;DHT22;18338;53.240;8.798;2023-06-24T09:44:27;35.00;74.50
31765;DHT22;18338;53.240;8.798;2023-06-24T09:46:55;34.70;72.60
31765;DHT22;18338;53.240;8.798;2023-06-24T09:49:23;35.10;73.10
31765;DHT22;18338;53.240;8.798;2023-06-24T09:51:57;36.70;73.40
31765;DHT22;18338;53.240;8.798;2023-06-24T09:54:28;37.20;68.00
31765;DHT22;18338;53.240;8.798;2023-06-24T09:57:02;36.30;68.00
31765;DHT22;18338;53.240;8.798;2023-06-24T09:59:30;35.30;68.70
31765;DHT22;18338;53.240;8.798;2023-06-24T10:02:02;35.80;70.60
31765;DHT22;18338;53.240;8.798;2023-06-24T10:04:31;35.20;70.40
31765;DHT22;18338;53.240;8.798;2023-06-24T10:06:59;35.00;70.40
31765;DHT22;18338;53.240;8.798;2023-06-24T10:09:27;35.20;69.70
31765;DHT22;18338;53.240;8.798;2023-06-24T10:11:55;35.80;69.70
31765;DHT22;18338;53.240;8.798;2023-06-24T10:14:21;36.40;67.10
31765;DHT22;18338;53.240;8.798;2023-06-24T10:16:48;37.90;66.60
31765;DHT22;18338;53.240;8.798;2023-06-24T10:19:22;37.60;65.40
31765;DHT22;18338;53.240;8.798;2023-06-24T10:21:58;36.60;67.00
31765;DHT22;18338;53.240;8.798;2023-06-24T10:24:40;37.50;65.30
31765;DHT22;18338;53.240;8.798;2023-06-24T10:27:14;37.80;65.00
31765;DHT22;18338;53.240;8.798;2023-06-24T10:29:46;39.20;65.10
31765;DHT22;18338;53.240;8.798;2023-06-24T10:32:15;39.30;60.50
31765;DHT22;18338;53.240;8.798;2023-06-24T10:34:44;38.30;61.70
31765;DHT22;18338;53.240;8.798;2023-06-24T10:37:13;38.20;64.00
31765;DHT22;18338;53.240;8.798;2023-06-24T10:42:39;39.80;59.20
31765;DHT22;18338;53.240;8.798;2023-06-24T10:47:50;37.90;61.70
31765;DHT22;18338;53.240;8.798;2023-06-24T10:50:20;37.50;62.90
31765;DHT22;18338;53.240;8.798;2023-06-24T10:52:48;36.20;65.10
31765;DHT22;18338;53.240;8.798;2023-06-24T10:55:17;36.70;64.90
31765;DHT22;18338;53.240;8.798;2023-06-24T10:57:45;38.10;63.60
31765;DHT22;18338;53.240;8.798;2023-06-24T11:00:13;38.00;61.50
31765;DHT22;18338;53.240;8.798;2023-06-24T11:02:40;36.80;63.50
31765;DHT22;18338;53.240;8.798;2023-06-24T11:05:08;36.80;64.70
31765;DHT22;18338;53.240;8.798;2023-06-24T11:07:36;36.40;64.40
31765;DHT22;18338;53.240;8.798;2023-06-24T11:10:11;36.50;65.30
31765;DHT22;18338;53.240;8.798;2023-06-24T11:12:40;37.00;65.20
31765;DHT22;18338;53.240;8.798;2023-06-24T11:15:09;38.70;62.70
31765;DHT22;18338;53.240;8.798;2023-06-24T11:17:40;39.70;62.00
31765;DHT22;18338;53.240;8.798;2023-06-24T11:20:09;36.90;61.20
31765;DHT22;18338;53.240;8.798;2023-06-24T11:22:39;35.00;66.00
31765;DHT22;18338;53.240;8.798;2023-06-24T11:25:06;35.40;65.60
31765;DHT22;18338;53.240;8.798;2023-06-24T11:27:40;36.40;65.90
31765;DHT22;18338;53.240;8.798;2023-06-24T11:30:07;37.20;66.40
31765;DHT22;18338;53.240;8.798;2023-06-24T11:32:42;37.60;63.50
31765;DHT22;18338;53.240;8.798;2023-06-24T11:35:10;37.50;62.70
31765;DHT22;18338;53.240;8.798;2023-06-24T11:37:40;37.20;64.20
31765;DHT22;18338;53.240;8.798;2023-06-24T11:40:08;38.00;64.40
31765;DHT22;18338;53.240;8.798;2023-06-24T11:42:41;36.10;63.70
31765;DHT22;18338;53.240;8.798;2023-06-24T11:45:12;36.10;65.40
31765;DHT22;18338;53.240;8.798;2023-06-24T11:47:42;36.90;63.20
31765;DHT22;18338;53.240;8.798;2023-06-24T11:50:10;36.60;64.90
31765;DHT22;18338;53.240;8.798;2023-06-24T11:52:49;38.00;66.60
31765;DHT22;18338;53.240;8.798;2023-06-24T11:55:20;39.40;61.30
31765;DHT22;18338;53.240;8.798;2023-06-24T11:57:49;40.40;59.50
31765;DHT22;18338;53.240;8.798;2023-06-24T12:00:16;40.40;58.80
31765;DHT22;18338;53.240;8.798;2023-06-24T12:02:43;39.60;59.40
31765;DHT22;18338;53.240;8.798;2023-06-24T12:05:10;39.20;58.80
31765;DHT22;18338;53.240;8.798;2023-06-24T12:07:37;38.50;59.80
31765;DHT22;18338;53.240;8.798;2023-06-24T12:10:04;38.10;61.30
31765;DHT22;18338;53.240;8.798;2023-06-24T12:12:31;38.80;59.00
31765;DHT22;18338;53.240;8.798;2023-06-24T12:14:58;39.00;58.70
31765;DHT22;18338;53.240;8.798;2023-06-24T12:17:25;38.40;59.20
31765;DHT22;18338;53.240;8.798;2023-06-24T12:19:52;36.90;59.80
31765;DHT22;18338;53.240;8.798;2023-06-24T12:22:19;37.00;62.20
31765;DHT22;18338;53.240;8.798;2023-06-24T12:24:46;38.60;61.20
31765;DHT22;18338;53.240;8.798;2023-06-24T12:27:13;39.20;59.40
31765;DHT22;18338;53.240;8.798;2023-06-24T12:29:40;37.50;59.60
31765;DHT22;18338;53.240;8.798;2023-06-24T12:32:07;37.50;61.30
31765;DHT22;18338;53.240;8.798;2023-06-24T12:34:34;37.70;61.30
31765;DHT22;18338;53.240;8.798;2023-06-24T12:37:01;36.00;61.30
31765;DHT22;18338;53.240;8.798;2023-06-24T12:39:28;35.70;64.00
31765;DHT22;18338;53.240;8.798;2023-06-24T12:41:55;36.10;65.50
31765;DHT22;18338;53.240;8.798;2023-06-24T12:44:22;36.00;63.00
31765;DHT22;18338;53.240;8.798;2023-06-24T12:46:48;34.10;63.90
31765;DHT22;18338;53.240;8.798;2023-06-24T12:49:16;34.00;68.40
31765;DHT22;18338;53.240;8.798;2023-06-24T12:51:43;35.10;66.10
31765;DHT22;18338;53.240;8.798;2023-06-24T12:54:11;36.40;63.80
31765;DHT22;18338;53.240;8.798;2023-06-24T12:56:38;36.90;62.60
31765;DHT22;18338;53.240;8.798;2023-06-24T12:59:05;38.10;63.70
31765;DHT22;18338;53.240;8.798;2023-06-24T13:01:32;39.10;59.30
31765;DHT22;18338;53.240;8.798;2023-06-24T13:03:59;37.90;59.40
31765;DHT22;18338;53.240;8.798;2023-06-24T13:06:26;38.00;61.50
31765;DHT22;18338;53.240;8.798;2023-06-24T13:08:52;38.30;59.50
31765;DHT22;18338;53.240;8.798;2023-06-24T13:11:20;37.30;60.50
31765;DHT22;18338;53.240;8.798;2023-06-24T13:13:46;37.10;61.50
31765;DHT22;18338;53.240;8.798;2023-06-24T13:16:13;37.20;62.00
31765;DHT22;18338;53.240;8.798;2023-06-24T13:18:40;38.70;61.10
31765;DHT22;18338;53.240;8.798;2023-06-24T13:21:07;39.20;59.50
31765;DHT22;18338;53.240;8.798;2023-06-24T13:23:42;37.60;60.20
31765;DHT22;18338;53.240;8.798;2023-06-24T13:26:08;37.40;60.10
31765;DHT22;18338;53.240;8.798;2023-06-24T13:28:37;36.00;61.60
31765;DHT22;18338;53.240;8.798;2023-06-24T13:31:04;35.00;63.90
31765;DHT22;18338;53.240;8.798;2023-06-24T13:33:31;34.70;66.90
31765;DHT22;18338;53.240;8.798;2023-06-24T13:35:59;34.40;68.40
31765;DHT22;18338;53.240;8.798;2023-06-24T13:38:26;33.60;69.00
31765;DHT22;18338;53.240;8.798;2023-06-24T13:40:53;32.80;70.10
31765;DHT22;18338;53.240;8.798;2023-06-24T13:43:19;32.50;69.10
31765;DHT22;18338;53.240;8.798;2023-06-24T13:45:46;32.30;72.20
31765;DHT22;18338;53.240;8.798;2023-06-24T13:48:13;32.80;72.20
31765;DHT22;18338;53.240;8.798;2023-06-24T13:50:40;33.20;71.40
31765;DHT22;18338;53.240;8.798;2023-06-24T13:53:07;34.60;69.20
31765;DHT22;18338;53.240;8.798;2023-06-24T13:55:34;36.10;68.40
31765;DHT22;18338;53.240;8.798;2023-06-24T13:58:02;35.40;65.50
31765;DHT22;18338;53.240;8.798;2023-06-24T14:00:29;34.60;66.10
31765;DHT22;18338;53.240;8.798;2023-06-24T14:02:56;33.80;68.70
31765;DHT22;18338;53.240;8.798;2023-06-24T14:05:23;33.20;71.60
31765;DHT22;18338;53.240;8.798;2023-06-24T14:07:49;32.70;72.50
31765;DHT22;18338;53.240;8.798;2023-06-24T14:10:16;32.50;72.50
31765;DHT22;18338;53.240;8.798;2023-06-24T14:12:43;33.10;73.30
31765;DHT22;18338;53.240;8.798;2023-06-24T14:15:11;33.10;71.80
31765;DHT22;18338;53.240;8.798;2023-06-24T14:17:37;32.90;71.10
31765;DHT22;18338;53.240;8.798;2023-06-24T14:20:05;32.40;73.70
31765;DHT22;18338;53.240;8.798;2023-06-24T14:22:31;33.00;75.60
31765;DHT22;18338;53.240;8.798;2023-06-24T14:24:58;33.70;69.60
31765;DHT22;18338;53.240;8.798;2023-06-24T14:27:25;34.40;75.40
31765;DHT22;18338;53.240;8.798;2023-06-24T14:29:52;35.30;67.30
31765;DHT22;18338;53.240;8.798;2023-06-24T14:32:18;35.00;69.40
31765;DHT22;18338;53.240;8.798;2023-06-24T14:34:45;34.30;71.20
31765;DHT22;18338;53.240;8.798;2023-06-24T14:37:12;33.90;71.70
31765;DHT22;18338;53.240;8.798;2023-06-24T14:39:40;33.60;70.70
31765;DHT22;18338;53.240;8.798;2023-06-24T14:42:07;32.80;70.30
31765;DHT22;18338;53.240;8.798;2023-06-24T14:44:33;32.10;72.30
31765;DHT22;18338;53.240;8.798;2023-06-24T14:47:00;32.00;76.60
31765;DHT22;18338;53.240;8.798;2023-06-24T14:49:27;31.20;75.90
31765;DHT22;18338;53.240;8.798;2023-06-24T14:51:53;31.10;80.00
31765;DHT22;18338;53.240;8.798;2023-06-24T14:54:22;32.10;78.80
31765;DHT22;18338;53.240;8.798;2023-06-24T14:56:49;33.20;77.70
31765;DHT22;18338;53.240;8.798;2023-06-24T14:59:15;34.00;71.30
31765;DHT22;18338;53.240;8.798;2023-06-24T15:01:42;34.50;68.80
31765;DHT22;18338;53.240;8.798;2023-06-24T15:04:10;33.90;71.80
31765;DHT22;18338;53.240;8.798;2023-06-24T15:06:36;33.00;75.90
31765;DHT22;18338;53.240;8.798;2023-06-24T15:09:03;32.10;73.90
31765;DHT22;18338;53.240;8.798;2023-06-24T15:11:30;31.60;75.10
31765;DHT22;18338;53.240;8.798;2023-06-24T15:13:56;31.30;77.70
31765;DHT22;18338;53.240;8.798;2023-06-24T15:16:25;31.00;77.60
31765;DHT22;18338;53.240;8.798;2023-06-24T15:18:52;31.00;77.90
31765;DHT22;18338;53.240;8.798;2023-06-24T15:21:19;30.80;81.80
31765;DHT22;18338;53.240;8.798;2023-06-24T15:24:02;30.70;80.10
31765;DHT22;18338;53.240;8.798;2023-06-24T15:26:29;30.60;83.40
31765;DHT22;18338;53.240;8.798;2023-06-24T15:28:56;30.50;81.50
31765;DHT22;18338;53.240;8.798;2023-06-24T15:31:24;30.50;83.40
31765;DHT22;18338;53.240;8.798;2023-06-24T15:33:51;30.50;83.40
31765;DHT22;18338;53.240;8.798;2023-06-24T15:36:17;30.60;86.00
31765;DHT22;18338;53.240;8.798;2023-06-24T15:38:44;30.90;84.60
31765;DHT22;18338;53.240;8.798;2023-06-24T15:41:11;31.10;84.60
31765;DHT22;18338;53.240;8.798;2023-06-24T15:43:37;31.30;82.20
31765;DHT22;18338;53.240;8.798;2023-06-24T15:46:04;31.40;82.60
31765;DHT22;18338;53.240;8.798;2023-06-24T15:48:31;31.60;82.70
31765;DHT22;18338;53.240;8.798;2023-06-24T15:50:58;31.70;82.00
31765;DHT22;18338;53.240;8.798;2023-06-24T15:53:26;32.00;80.80